sensor_id;sensor_type;location;lat;lon;timestamp;P1;durP1;ratioP1;P2;durP2;ratioP2
2009;SDS011;1008;47.404;8.502;2023-04-25T00:00:20;3.20;;;2.50;;
2009;SDS011;1008;47.404;8.502;2023-04-25T00:02:47;3.00;;;2.30;;
2009;SDS011;1008;47.404;8.502;2023-04-25T00:05:13;3.30;;;2.40;;
2009;SDS011;1008;47.404;8.502;2023-04-25T00:07:41;3.90;;;2.40;;
2009;SDS011;1008;47.404;8.502;2023-04-25T00:10:09;3.80;;;2.63;;
2009;SDS011;1008;47.404;8.502;2023-04-25T00:12:36;2.67;;;2.43;;
2009;SDS011;1008;47.404;8.502;2023-04-25T00:15:04;4.03;;;2.80;;
2009;SDS011;1008;47.404;8.502;2023-04-25T00:17:31;3.30;;;2.80;;
2009;SDS011;1008;47.404;8.502;2023-04-25T00:19:59;2.93;;;2.63;;
2009;SDS011;1008;47.404;8.502;2023-04-25T00:22:29;2.57;;;2.07;;
2009;SDS011;1008;47.404;8.502;2023-04-25T00:24:56;2.67;;;2.33;;
2009;SDS011;1008;47.404;8.502;2023-04-25T00:27:26;4.43;;;2.50;;
2009;SDS011;1008;47.404;8.502;2023-04-25T00:29:53;3.10;;;2.40;;
2009;SDS011;1008;47.404;8.502;2023-04-25T00:32:19;2.33;;;2.07;;
2009;SDS011;1008;47.404;8.502;2023-04-25T00:34:46;4.60;;;2.53;;
2009;SDS011;1008;47.404;8.502;2023-04-25T00:37:13;3.60;;;2.40;;
2009;SDS011;1008;47.404;8.502;2023-04-25T00:39:40;2.50;;;2.30;;
2009;SDS011;1008;47.404;8.502;2023-04-25T00:42:06;3.10;;;2.80;;
2009;SDS011;1008;47.404;8.502;2023-04-25T00:44:35;3.33;;;2.33;;
2009;SDS011;1008;47.404;8.502;2023-04-25T00:47:03;3.90;;;2.33;;
2009;SDS011;1008;47.404;8.502;2023-04-25T00:49:30;3.27;;;2.40;;
2009;SDS011;1008;47.404;8.502;2023-04-25T00:51:57;2.80;;;2.40;;
2009;SDS011;1008;47.404;8.502;2023-04-25T00:54:23;3.17;;;2.20;;
2009;SDS011;1008;47.404;8.502;2023-04-25T00:56:51;4.20;;;2.50;;
2009;SDS011;1008;47.404;8.502;2023-04-25T00:59:18;4.23;;;2.70;;
2009;SDS011;1008;47.404;8.502;2023-04-25T01:01:47;4.13;;;3.07;;
2009;SDS011;1008;47.404;8.502;2023-04-25T01:04:14;4.00;;;2.50;;
2009;SDS011;1008;47.404;8.502;2023-04-25T01:06:41;4.73;;;2.63;;
2009;SDS011;1008;47.404;8.502;2023-04-25T01:09:08;2.97;;;2.63;;
2009;SDS011;1008;47.404;8.502;2023-04-25T01:11:35;3.63;;;2.83;;
2009;SDS011;1008;47.404;8.502;2023-04-25T01:14:02;2.67;;;2.40;;
2009;SDS011;1008;47.404;8.502;2023-04-25T01:16:28;3.20;;;2.70;;
2009;SDS011;1008;47.404;8.502;2023-04-25T01:18:57;4.03;;;2.57;;
2009;SDS011;1008;47.404;8.502;2023-04-25T01:21:26;4.80;;;2.90;;
2009;SDS011;1008;47.404;8.502;2023-04-25T01:23:54;5.30;;;2.90;;
2009;SDS011;1008;47.404;8.502;2023-04-25T01:26:21;4.80;;;2.90;;
2009;SDS011;1008;47.404;8.502;2023-04-25T01:28:49;5.73;;;2.70;;
2009;SDS011;1008;47.404;8.502;2023-04-25T01:31:16;7.07;;;2.67;;
2009;SDS011;1008;47.404;8.502;2023-04-25T01:33:44;3.13;;;2.80;;
2009;SDS011;1008;47.404;8.502;2023-04-25T01:36:11;3.27;;;2.47;;
2009;SDS011;1008;47.404;8.502;2023-04-25T01:38:40;2.73;;;2.50;;
2009;SDS011;1008;47.404;8.502;2023-04-25T01:41:08;3.33;;;2.60;;
2009;SDS011;1008;47.404;8.502;2023-04-25T01:43:35;5.30;;;3.20;;
2009;SDS011;1008;47.404;8.502;2023-04-25T01:46:02;4.97;;;2.53;;
2009;SDS011;1008;47.404;8.502;2023-04-25T01:48:29;3.10;;;2.50;;
2009;SDS011;1008;47.404;8.502;2023-04-25T01:50:56;3.27;;;2.53;;
2009;SDS011;1008;47.404;8.502;2023-04-25T01:53:23;4.00;;;2.50;;
2009;SDS011;1008;47.404;8.502;2023-04-25T01:55:52;6.40;;;2.87;;
2009;SDS011;1008;47.404;8.502;2023-04-25T01:58:19;6.27;;;2.80;;
2009;SDS011;1008;47.404;8.502;2023-04-25T02:00:46;2.63;;;2.37;;
2009;SDS011;1008;47.404;8.502;2023-04-25T02:03:12;3.10;;;2.33;;
2009;SDS011;1008;47.404;8.502;2023-04-25T02:05:39;5.77;;;3.13;;
2009;SDS011;1008;47.404;8.502;2023-04-25T02:08:07;4.07;;;2.40;;
2009;SDS011;1008;47.404;8.502;2023-04-25T02:10:35;5.20;;;3.00;;
2009;SDS011;1008;47.404;8.502;2023-04-25T02:13:03;2.43;;;2.20;;
2009;SDS011;1008;47.404;8.502;2023-04-25T02:15:31;3.00;;;2.40;;
2009;SDS011;1008;47.404;8.502;2023-04-25T02:17:57;4.87;;;2.63;;
2009;SDS011;1008;47.404;8.502;2023-04-25T02:20:25;3.50;;;2.77;;
2009;SDS011;1008;47.404;8.502;2023-04-25T02:22:52;3.30;;;2.93;;
2009;SDS011;1008;47.404;8.502;2023-04-25T02:25:19;3.50;;;2.37;;
2009;SDS011;1008;47.404;8.502;2023-04-25T02:27:46;3.30;;;2.77;;
2009;SDS011;1008;47.404;8.502;2023-04-25T02:30:14;6.63;;;2.83;;
2009;SDS011;1008;47.404;8.502;2023-04-25T02:32:41;6.87;;;2.70;;
2009;SDS011;1008;47.404;8.502;2023-04-25T02:35:08;3.23;;;2.83;;
2009;SDS011;1008;47.404;8.502;2023-04-25T02:37:36;3.30;;;2.37;;
2009;SDS011;1008;47.404;8.502;2023-04-25T02:40:04;6.67;;;2.27;;
2009;SDS011;1008;47.404;8.502;2023-04-25T02:42:31;3.40;;;2.80;;
2009;SDS011;1008;47.404;8.502;2023-04-25T02:44:58;3.57;;;2.90;;
2009;SDS011;1008;47.404;8.502;2023-04-25T02:47:26;4.77;;;2.93;;
2009;SDS011;1008;47.404;8.502;2023-04-25T02:49:53;3.30;;;2.83;;
2009;SDS011;1008;47.404;8.502;2023-04-25T02:52:20;4.40;;;3.23;;
2009;SDS011;1008;47.404;8.502;2023-04-25T02:54:47;4.17;;;3.10;;
2009;SDS011;1008;47.404;8.502;2023-04-25T02:57:14;5.20;;;2.37;;
2009;SDS011;1008;47.404;8.502;2023-04-25T02:59:40;4.70;;;2.80;;
2009;SDS011;1008;47.404;8.502;2023-04-25T03:02:09;5.43;;;2.60;;
2009;SDS011;1008;47.404;8.502;2023-04-25T03:04:37;4.27;;;2.53;;
2009;SDS011;1008;47.404;8.502;2023-04-25T03:07:04;4.70;;;2.43;;
2009;SDS011;1008;47.404;8.502;2023-04-25T03:09:30;5.47;;;2.70;;
2009;SDS011;1008;47.404;8.502;2023-04-25T03:11:57;3.60;;;2.80;;
2009;SDS011;1008;47.404;8.502;2023-04-25T03:14:24;2.93;;;2.57;;
2009;SDS011;1008;47.404;8.502;2023-04-25T03:16:51;4.93;;;3.13;;
2009;SDS011;1008;47.404;8.502;2023-04-25T03:19:17;3.23;;;2.73;;
2009;SDS011;1008;47.404;8.502;2023-04-25T03:21:46;3.27;;;2.50;;
2009;SDS011;1008;47.404;8.502;2023-04-25T03:24:13;3.13;;;2.60;;
2009;SDS011;1008;47.404;8.502;2023-04-25T03:26:40;3.00;;;2.70;;
2009;SDS011;1008;47.404;8.502;2023-04-25T03:29:07;3.20;;;2.40;;
2009;SDS011;1008;47.404;8.502;2023-04-25T03:31:34;6.23;;;3.13;;
2009;SDS011;1008;47.404;8.502;2023-04-25T03:34:01;3.40;;;2.77;;
2009;SDS011;1008;47.404;8.502;2023-04-25T03:36:27;3.37;;;2.40;;
2009;SDS011;1008;47.404;8.502;2023-04-25T03:38:55;3.93;;;2.70;;
2009;SDS011;1008;47.404;8.502;2023-04-25T03:41:22;2.90;;;2.53;;
2009;SDS011;1008;47.404;8.502;2023-04-25T03:43:49;4.97;;;2.47;;
2009;SDS011;1008;47.404;8.502;2023-04-25T03:46:15;3.60;;;2.63;;
2009;SDS011;1008;47.404;8.502;2023-04-25T03:48:42;3.53;;;2.67;;
2009;SDS011;1008;47.404;8.502;2023-04-25T03:51:09;2.73;;;2.20;;
2009;SDS011;1008;47.404;8.502;2023-04-25T03:53:36;4.97;;;2.97;;
2009;SDS011;1008;47.404;8.502;2023-04-25T03:56:05;4.33;;;3.10;;
2009;SDS011;1008;47.404;8.502;2023-04-25T03:58:32;6.17;;;2.33;;
2009;SDS011;1008;47.404;8.502;2023-04-25T04:00:59;5.40;;;2.87;;
2009;SDS011;1008;47.404;8.502;2023-04-25T04:03:27;3.73;;;2.50;;
2009;SDS011;1008;47.404;8.502;2023-04-25T04:05:54;4.73;;;2.80;;
2009;SDS011;1008;47.404;8.502;2023-04-25T04:08:21;3.10;;;2.80;;
2009;SDS011;1008;47.404;8.502;2023-04-25T04:10:47;3.83;;;2.73;;
2009;SDS011;1008;47.404;8.502;2023-04-25T04:13:16;3.43;;;2.70;;
2009;SDS011;1008;47.404;8.502;2023-04-25T04:15:42;3.50;;;2.50;;
2009;SDS011;1008;47.404;8.502;2023-04-25T04:18:09;5.03;;;2.53;;
2009;SDS011;1008;47.404;8.502;2023-04-25T04:20:36;3.47;;;2.63;;
2009;SDS011;1008;47.404;8.502;2023-04-25T04:23:03;3.53;;;2.50;;
2009;SDS011;1008;47.404;8.502;2023-04-25T04:25:30;3.70;;;2.60;;
2009;SDS011;1008;47.404;8.502;2023-04-25T04:27:57;4.33;;;2.67;;
2009;SDS011;1008;47.404;8.502;2023-04-25T04:30:25;5.30;;;2.70;;
2009;SDS011;1008;47.404;8.502;2023-04-25T04:32:54;4.90;;;2.57;;
2009;SDS011;1008;47.404;8.502;2023-04-25T04:35:21;4.47;;;3.30;;
2009;SDS011;1008;47.404;8.502;2023-04-25T04:37:48;3.40;;;2.63;;
2009;SDS011;1008;47.404;8.502;2023-04-25T04:40:15;7.13;;;2.50;;
2009;SDS011;1008;47.404;8.502;2023-04-25T04:42:43;4.70;;;2.97;;
2009;SDS011;1008;47.404;8.502;2023-04-25T04:45:10;2.93;;;2.57;;
2009;SDS011;1008;47.404;8.502;2023-04-25T04:47:39;8.10;;;2.63;;
2009;SDS011;1008;47.404;8.502;2023-04-25T04:50:06;3.00;;;2.50;;
2009;SDS011;1008;47.404;8.502;2023-04-25T04:52:34;4.30;;;2.77;;
2009;SDS011;1008;47.404;8.502;2023-04-25T04:55:01;5.17;;;3.50;;
2009;SDS011;1008;47.404;8.502;2023-04-25T04:57:28;4.80;;;3.23;;
2009;SDS011;1008;47.404;8.502;2023-04-25T04:59:56;6.90;;;3.30;;
2009;SDS011;1008;47.404;8.502;2023-04-25T05:02:22;7.10;;;2.80;;
2009;SDS011;1008;47.404;8.502;2023-04-25T05:04:50;4.20;;;2.60;;
2009;SDS011;1008;47.404;8.502;2023-04-25T05:07:17;8.57;;;3.10;;
2009;SDS011;1008;47.404;8.502;2023-04-25T05:09:44;8.57;;;4.13;;
2009;SDS011;1008;47.404;8.502;2023-04-25T05:12:13;4.73;;;3.60;;
2009;SDS011;1008;47.404;8.502;2023-04-25T05:14:40;4.57;;;3.00;;
2009;SDS011;1008;47.404;8.502;2023-04-25T05:17:07;4.20;;;3.33;;
2009;SDS011;1008;47.404;8.502;2023-04-25T05:19:33;5.80;;;3.67;;
2009;SDS011;1008;47.404;8.502;2023-04-25T05:22:09;6.77;;;3.60;;
2009;SDS011;1008;47.404;8.502;2023-04-25T05:24:35;3.80;;;3.23;;
2009;SDS011;1008;47.404;8.502;2023-04-25T05:27:02;4.17;;;2.60;;
2009;SDS011;1008;47.404;8.502;2023-04-25T05:29:30;4.47;;;3.20;;
2009;SDS011;1008;47.404;8.502;2023-04-25T05:31:57;3.40;;;2.80;;
2009;SDS011;1008;47.404;8.502;2023-04-25T05:34:23;6.27;;;3.00;;
2009;SDS011;1008;47.404;8.502;2023-04-25T05:36:50;5.20;;;2.63;;
2009;SDS011;1008;47.404;8.502;2023-04-25T05:39:19;5.33;;;3.50;;
2009;SDS011;1008;47.404;8.502;2023-04-25T05:41:45;5.23;;;3.30;;
2009;SDS011;1008;47.404;8.502;2023-04-25T05:44:12;4.13;;;2.73;;
2009;SDS011;1008;47.404;8.502;2023-04-25T05:46:40;3.40;;;2.50;;
2009;SDS011;1008;47.404;8.502;2023-04-25T05:49:07;2.67;;;2.43;;
2009;SDS011;1008;47.404;8.502;2023-04-25T05:51:34;3.50;;;2.10;;
2009;SDS011;1008;47.404;8.502;2023-04-25T05:54:01;5.53;;;2.60;;
2009;SDS011;1008;47.404;8.502;2023-04-25T05:56:30;10.47;;;2.47;;
2009;SDS011;1008;47.404;8.502;2023-04-25T05:58:57;4.57;;;2.30;;
2009;SDS011;1008;47.404;8.502;2023-04-25T06:01:23;3.00;;;2.10;;
2009;SDS011;1008;47.404;8.502;2023-04-25T06:03:50;4.77;;;2.47;;
2009;SDS011;1008;47.404;8.502;2023-04-25T06:06:17;3.60;;;2.70;;
2009;SDS011;1008;47.404;8.502;2023-04-25T06:08:44;5.00;;;2.80;;
2009;SDS011;1008;47.404;8.502;2023-04-25T06:11:11;2.73;;;2.23;;
2009;SDS011;1008;47.404;8.502;2023-04-25T06:13:39;3.07;;;2.23;;
2009;SDS011;1008;47.404;8.502;2023-04-25T06:16:06;4.50;;;2.23;;
2009;SDS011;1008;47.404;8.502;2023-04-25T06:18:32;4.20;;;2.00;;
2009;SDS011;1008;47.404;8.502;2023-04-25T06:20:59;4.07;;;2.20;;
2009;SDS011;1008;47.404;8.502;2023-04-25T06:23:26;2.93;;;2.10;;
2009;SDS011;1008;47.404;8.502;2023-04-25T06:25:53;4.27;;;3.00;;
2009;SDS011;1008;47.404;8.502;2023-04-25T06:28:19;5.40;;;2.87;;
2009;SDS011;1008;47.404;8.502;2023-04-25T06:30:48;5.70;;;2.30;;
2009;SDS011;1008;47.404;8.502;2023-04-25T06:33:15;3.63;;;2.30;;
2009;SDS011;1008;47.404;8.502;2023-04-25T06:35:42;3.50;;;2.10;;
2009;SDS011;1008;47.404;8.502;2023-04-25T06:38:08;3.87;;;2.40;;
2009;SDS011;1008;47.404;8.502;2023-04-25T06:40:35;6.33;;;3.13;;
2009;SDS011;1008;47.404;8.502;2023-04-25T06:43:02;3.23;;;2.50;;
2009;SDS011;1008;47.404;8.502;2023-04-25T06:45:28;2.80;;;2.30;;
2009;SDS011;1008;47.404;8.502;2023-04-25T06:47:57;3.03;;;2.37;;
2009;SDS011;1008;47.404;8.502;2023-04-25T06:50:23;3.47;;;2.57;;
2009;SDS011;1008;47.404;8.502;2023-04-25T06:52:50;3.93;;;2.43;;
2009;SDS011;1008;47.404;8.502;2023-04-25T06:55:17;3.97;;;2.70;;
2009;SDS011;1008;47.404;8.502;2023-04-25T06:57:44;2.40;;;2.20;;
2009;SDS011;1008;47.404;8.502;2023-04-25T07:00:11;6.93;;;3.40;;
2009;SDS011;1008;47.404;8.502;2023-04-25T07:02:40;5.70;;;2.60;;
2009;SDS011;1008;47.404;8.502;2023-04-25T07:05:09;3.40;;;2.60;;
2009;SDS011;1008;47.404;8.502;2023-04-25T07:07:36;4.50;;;2.60;;
2009;SDS011;1008;47.404;8.502;2023-04-25T07:10:03;3.20;;;2.50;;
2009;SDS011;1008;47.404;8.502;2023-04-25T07:12:30;6.00;;;2.10;;
2009;SDS011;1008;47.404;8.502;2023-04-25T07:14:57;2.37;;;2.00;;
2009;SDS011;1008;47.404;8.502;2023-04-25T07:17:24;2.47;;;2.10;;
2009;SDS011;1008;47.404;8.502;2023-04-25T07:19:50;1.90;;;1.80;;
2009;SDS011;1008;47.404;8.502;2023-04-25T07:22:19;3.07;;;1.70;;
2009;SDS011;1008;47.404;8.502;2023-04-25T07:24:45;3.93;;;1.67;;
2009;SDS011;1008;47.404;8.502;2023-04-25T07:27:13;8.63;;;1.80;;
2009;SDS011;1008;47.404;8.502;2023-04-25T07:29:40;4.37;;;1.73;;
2009;SDS011;1008;47.404;8.502;2023-04-25T07:32:07;5.40;;;2.10;;
2009;SDS011;1008;47.404;8.502;2023-04-25T07:34:35;2.50;;;1.70;;
2009;SDS011;1008;47.404;8.502;2023-04-25T07:37:03;3.63;;;1.90;;
2009;SDS011;1008;47.404;8.502;2023-04-25T07:39:32;1.70;;;1.60;;
2009;SDS011;1008;47.404;8.502;2023-04-25T07:41:59;1.87;;;1.53;;
2009;SDS011;1008;47.404;8.502;2023-04-25T07:44:27;2.60;;;2.07;;
2009;SDS011;1008;47.404;8.502;2023-04-25T07:46:55;3.20;;;2.13;;
2009;SDS011;1008;47.404;8.502;2023-04-25T07:49:22;2.60;;;1.63;;
2009;SDS011;1008;47.404;8.502;2023-04-25T07:51:49;1.50;;;1.40;;
2009;SDS011;1008;47.404;8.502;2023-04-25T07:54:16;4.70;;;1.90;;
2009;SDS011;1008;47.404;8.502;2023-04-25T07:56:44;2.20;;;1.87;;
2009;SDS011;1008;47.404;8.502;2023-04-25T07:59:11;2.13;;;1.90;;
2009;SDS011;1008;47.404;8.502;2023-04-25T08:01:38;2.23;;;1.80;;
2009;SDS011;1008;47.404;8.502;2023-04-25T08:04:04;2.13;;;2.00;;
2009;SDS011;1008;47.404;8.502;2023-04-25T08:06:31;4.33;;;2.50;;
2009;SDS011;1008;47.404;8.502;2023-04-25T08:08:58;3.10;;;2.30;;
2009;SDS011;1008;47.404;8.502;2023-04-25T08:11:25;4.27;;;1.93;;
2009;SDS011;1008;47.404;8.502;2023-04-25T08:13:53;2.43;;;2.00;;
2009;SDS011;1008;47.404;8.502;2023-04-25T08:16:20;3.27;;;2.30;;
2009;SDS011;1008;47.404;8.502;2023-04-25T08:18:47;2.90;;;1.90;;
2009;SDS011;1008;47.404;8.502;2023-04-25T08:21:14;2.53;;;1.83;;
2009;SDS011;1008;47.404;8.502;2023-04-25T08:23:40;3.27;;;1.73;;
2009;SDS011;1008;47.404;8.502;2023-04-25T08:26:07;2.90;;;2.00;;
2009;SDS011;1008;47.404;8.502;2023-04-25T08:28:34;2.50;;;1.70;;
2009;SDS011;1008;47.404;8.502;2023-04-25T08:31:02;2.17;;;1.87;;
2009;SDS011;1008;47.404;8.502;2023-04-25T08:33:29;2.40;;;2.00;;
2009;SDS011;1008;47.404;8.502;2023-04-25T08:35:57;2.70;;;1.77;;
2009;SDS011;1008;47.404;8.502;2023-04-25T08:38:24;3.80;;;1.97;;
2009;SDS011;1008;47.404;8.502;2023-04-25T08:40:50;1.70;;;1.57;;
2009;SDS011;1008;47.404;8.502;2023-04-25T08:43:18;1.60;;;1.50;;
2009;SDS011;1008;47.404;8.502;2023-04-25T08:45:46;2.50;;;1.93;;
2009;SDS011;1008;47.404;8.502;2023-04-25T08:48:15;2.40;;;1.83;;
2009;SDS011;1008;47.404;8.502;2023-04-25T08:50:44;3.20;;;1.93;;
2009;SDS011;1008;47.404;8.502;2023-04-25T08:53:16;1.63;;;1.50;;
2009;SDS011;1008;47.404;8.502;2023-04-25T08:55:47;2.07;;;1.80;;
2009;SDS011;1008;47.404;8.502;2023-04-25T08:58:15;6.53;;;2.37;;
2009;SDS011;1008;47.404;8.502;2023-04-25T09:00:45;2.00;;;1.90;;
2009;SDS011;1008;47.404;8.502;2023-04-25T09:03:12;2.90;;;1.70;;
2009;SDS011;1008;47.404;8.502;2023-04-25T09:05:40;2.80;;;1.60;;
2009;SDS011;1008;47.404;8.502;2023-04-25T09:08:07;1.60;;;1.50;;
2009;SDS011;1008;47.404;8.502;2023-04-25T09:10:34;4.87;;;2.10;;
2009;SDS011;1008;47.404;8.502;2023-04-25T09:13:02;2.23;;;2.03;;
2009;SDS011;1008;47.404;8.502;2023-04-25T09:15:31;2.50;;;1.77;;
2009;SDS011;1008;47.404;8.502;2023-04-25T09:17:58;2.83;;;2.13;;
2009;SDS011;1008;47.404;8.502;2023-04-25T09:20:25;2.30;;;1.87;;
2009;SDS011;1008;47.404;8.502;2023-04-25T09:23:02;3.00;;;2.20;;
2009;SDS011;1008;47.404;8.502;2023-04-25T09:25:33;3.23;;;2.33;;
2009;SDS011;1008;47.404;8.502;2023-04-25T09:28:03;3.00;;;2.50;;
2009;SDS011;1008;47.404;8.502;2023-04-25T09:30:31;2.73;;;2.10;;
2009;SDS011;1008;47.404;8.502;2023-04-25T09:33:03;2.97;;;2.50;;
2009;SDS011;1008;47.404;8.502;2023-04-25T09:35:34;3.10;;;2.53;;
2009;SDS011;1008;47.404;8.502;2023-04-25T09:38:08;2.67;;;2.47;;
2009;SDS011;1008;47.404;8.502;2023-04-25T09:40:39;2.30;;;2.10;;
2009;SDS011;1008;47.404;8.502;2023-04-25T09:43:08;2.47;;;2.10;;
2009;SDS011;1008;47.404;8.502;2023-04-25T09:45:40;2.80;;;2.13;;
2009;SDS011;1008;47.404;8.502;2023-04-25T09:48:10;3.07;;;2.23;;
2009;SDS011;1008;47.404;8.502;2023-04-25T09:50:37;1.80;;;1.57;;
2009;SDS011;1008;47.404;8.502;2023-04-25T09:53:05;1.83;;;1.37;;
2009;SDS011;1008;47.404;8.502;2023-04-25T09:55:34;1.80;;;1.40;;
2009;SDS011;1008;47.404;8.502;2023-04-25T09:58:03;1.60;;;1.50;;
2009;SDS011;1008;47.404;8.502;2023-04-25T10:00:32;1.40;;;1.30;;
2009;SDS011;1008;47.404;8.502;2023-04-25T10:03:00;1.17;;;1.07;;
2009;SDS011;1008;47.404;8.502;2023-04-25T10:05:29;1.10;;;0.90;;
2009;SDS011;1008;47.404;8.502;2023-04-25T10:07:58;2.93;;;1.20;;
2009;SDS011;1008;47.404;8.502;2023-04-25T10:10:28;1.20;;;1.10;;
2009;SDS011;1008;47.404;8.502;2023-04-25T10:13:00;1.47;;;1.37;;
2009;SDS011;1008;47.404;8.502;2023-04-25T10:15:30;1.20;;;1.10;;
2009;SDS011;1008;47.404;8.502;2023-04-25T10:17:58;1.40;;;1.30;;
2009;SDS011;1008;47.404;8.502;2023-04-25T10:20:25;1.23;;;1.13;;
2009;SDS011;1008;47.404;8.502;2023-04-25T10:22:53;5.77;;;1.50;;
2009;SDS011;1008;47.404;8.502;2023-04-25T10:25:22;1.27;;;1.00;;
2009;SDS011;1008;47.404;8.502;2023-04-25T10:27:51;2.10;;;1.20;;
2009;SDS011;1008;47.404;8.502;2023-04-25T10:30:19;1.83;;;1.57;;
2009;SDS011;1008;47.404;8.502;2023-04-25T10:32:46;1.87;;;1.17;;
2009;SDS011;1008;47.404;8.502;2023-04-25T10:35:15;1.13;;;1.00;;
2009;SDS011;1008;47.404;8.502;2023-04-25T10:37:56;1.40;;;0.97;;
2009;SDS011;1008;47.404;8.502;2023-04-25T10:40:23;1.20;;;1.10;;
2009;SDS011;1008;47.404;8.502;2023-04-25T10:42:52;1.40;;;1.30;;
2009;SDS011;1008;47.404;8.502;2023-04-25T10:45:20;1.00;;;0.90;;
2009;SDS011;1008;47.404;8.502;2023-04-25T10:47:47;1.03;;;0.93;;
2009;SDS011;1008;47.404;8.502;2023-04-25T10:50:14;1.30;;;1.10;;
2009;SDS011;1008;47.404;8.502;2023-04-25T10:52:41;1.10;;;1.00;;
2009;SDS011;1008;47.404;8.502;2023-04-25T10:55:08;1.30;;;1.20;;
2009;SDS011;1008;47.404;8.502;2023-04-25T10:57:39;1.80;;;1.10;;
2009;SDS011;1008;47.404;8.502;2023-04-25T11:00:12;1.20;;;1.00;;
2009;SDS011;1008;47.404;8.502;2023-04-25T11:02:41;2.00;;;1.00;;
2009;SDS011;1008;47.404;8.502;2023-04-25T11:05:10;2.30;;;1.27;;
2009;SDS011;1008;47.404;8.502;2023-04-25T11:07:44;2.20;;;1.30;;
2009;SDS011;1008;47.404;8.502;2023-04-25T11:10:15;1.30;;;1.10;;
2009;SDS011;1008;47.404;8.502;2023-04-25T11:12:42;0.90;;;0.80;;
2009;SDS011;1008;47.404;8.502;2023-04-25T11:15:12;1.10;;;0.90;;
2009;SDS011;1008;47.404;8.502;2023-04-25T11:17:39;1.10;;;0.90;;
2009;SDS011;1008;47.404;8.502;2023-04-25T11:20:06;1.30;;;1.10;;
2009;SDS011;1008;47.404;8.502;2023-04-25T11:22:36;1.27;;;1.17;;
2009;SDS011;1008;47.404;8.502;2023-04-25T11:25:04;1.37;;;1.23;;
2009;SDS011;1008;47.404;8.502;2023-04-25T11:27:32;1.50;;;1.00;;
2009;SDS011;1008;47.404;8.502;2023-04-25T11:30:09;2.50;;;1.23;;
2009;SDS011;1008;47.404;8.502;2023-04-25T11:32:39;1.57;;;1.37;;
2009;SDS011;1008;47.404;8.502;2023-04-25T11:35:06;1.40;;;1.30;;
2009;SDS011;1008;47.404;8.502;2023-04-25T11:37:34;1.40;;;1.30;;
2009;SDS011;1008;47.404;8.502;2023-04-25T11:40:01;1.30;;;1.10;;
2009;SDS011;1008;47.404;8.502;2023-04-25T11:42:31;1.20;;;1.00;;
2009;SDS011;1008;47.404;8.502;2023-04-25T11:44:58;1.67;;;1.23;;
2009;SDS011;1008;47.404;8.502;2023-04-25T11:47:28;1.57;;;1.30;;
2009;SDS011;1008;47.404;8.502;2023-04-25T11:49:57;1.70;;;1.30;;
2009;SDS011;1008;47.404;8.502;2023-04-25T11:52:24;2.03;;;1.60;;
2009;SDS011;1008;47.404;8.502;2023-04-25T11:54:51;2.07;;;1.60;;
2009;SDS011;1008;47.404;8.502;2023-04-25T11:57:18;1.30;;;1.20;;
2009;SDS011;1008;47.404;8.502;2023-04-25T11:59:45;3.33;;;1.50;;
2009;SDS011;1008;47.404;8.502;2023-04-25T12:02:23;1.30;;;1.10;;
2009;SDS011;1008;47.404;8.502;2023-04-25T12:04:51;1.53;;;1.23;;
2009;SDS011;1008;47.404;8.502;2023-04-25T12:07:18;1.40;;;1.30;;
2009;SDS011;1008;47.404;8.502;2023-04-25T12:09:51;1.20;;;1.10;;
2009;SDS011;1008;47.404;8.502;2023-04-25T12:12:18;1.87;;;1.33;;
2009;SDS011;1008;47.404;8.502;2023-04-25T12:14:46;1.60;;;1.30;;
2009;SDS011;1008;47.404;8.502;2023-04-25T12:17:14;2.53;;;1.50;;
2009;SDS011;1008;47.404;8.502;2023-04-25T12:19:40;1.47;;;1.20;;
2009;SDS011;1008;47.404;8.502;2023-04-25T12:22:20;1.73;;;1.30;;
2009;SDS011;1008;47.404;8.502;2023-04-25T12:24:48;1.20;;;1.10;;
2009;SDS011;1008;47.404;8.502;2023-04-25T12:27:15;5.70;;;1.67;;
2009;SDS011;1008;47.404;8.502;2023-04-25T12:29:50;1.97;;;1.70;;
2009;SDS011;1008;47.404;8.502;2023-04-25T12:32:18;1.77;;;1.43;;
2009;SDS011;1008;47.404;8.502;2023-04-25T12:34:45;3.63;;;1.70;;
2009;SDS011;1008;47.404;8.502;2023-04-25T12:37:12;2.10;;;1.70;;
2009;SDS011;1008;47.404;8.502;2023-04-25T12:39:40;1.80;;;1.43;;
2009;SDS011;1008;47.404;8.502;2023-04-25T12:42:07;1.70;;;1.57;;
2009;SDS011;1008;47.404;8.502;2023-04-25T12:44:36;2.43;;;1.83;;
2009;SDS011;1008;47.404;8.502;2023-04-25T12:47:03;2.60;;;1.30;;
2009;SDS011;1008;47.404;8.502;2023-04-25T12:49:30;2.63;;;1.53;;
2009;SDS011;1008;47.404;8.502;2023-04-25T12:51:57;1.60;;;1.40;;
2009;SDS011;1008;47.404;8.502;2023-04-25T12:54:24;2.27;;;1.73;;
2009;SDS011;1008;47.404;8.502;2023-04-25T12:56:52;2.53;;;1.30;;
2009;SDS011;1008;47.404;8.502;2023-04-25T12:59:19;1.70;;;1.37;;
2009;SDS011;1008;47.404;8.502;2023-04-25T13:01:46;1.67;;;1.30;;
2009;SDS011;1008;47.404;8.502;2023-04-25T13:04:13;1.60;;;1.40;;
2009;SDS011;1008;47.404;8.502;2023-04-25T13:06:40;2.03;;;1.40;;
2009;SDS011;1008;47.404;8.502;2023-04-25T13:09:07;1.73;;;1.50;;
2009;SDS011;1008;47.404;8.502;2023-04-25T13:11:34;2.73;;;2.00;;
2009;SDS011;1008;47.404;8.502;2023-04-25T13:14:02;3.00;;;1.50;;
2009;SDS011;1008;47.404;8.502;2023-04-25T13:16:30;1.53;;;1.43;;
2009;SDS011;1008;47.404;8.502;2023-04-25T13:18:57;1.90;;;1.70;;
2009;SDS011;1008;47.404;8.502;2023-04-25T13:21:24;1.90;;;1.50;;
2009;SDS011;1008;47.404;8.502;2023-04-25T13:23:51;1.63;;;1.50;;
2009;SDS011;1008;47.404;8.502;2023-04-25T13:26:18;1.93;;;1.60;;
2009;SDS011;1008;47.404;8.502;2023-04-25T13:28:45;3.07;;;1.50;;
2009;SDS011;1008;47.404;8.502;2023-04-25T13:31:13;1.37;;;1.27;;
2009;SDS011;1008;47.404;8.502;2023-04-25T13:33:40;3.33;;;1.70;;
2009;SDS011;1008;47.404;8.502;2023-04-25T13:36:07;1.70;;;1.20;;
2009;SDS011;1008;47.404;8.502;2023-04-25T13:38:33;1.73;;;1.40;;
2009;SDS011;1008;47.404;8.502;2023-04-25T13:41:00;1.30;;;1.20;;
2009;SDS011;1008;47.404;8.502;2023-04-25T13:43:27;1.97;;;1.40;;
2009;SDS011;1008;47.404;8.502;2023-04-25T13:45:54;1.50;;;1.33;;
2009;SDS011;1008;47.404;8.502;2023-04-25T13:48:22;1.33;;;1.23;;
2009;SDS011;1008;47.404;8.502;2023-04-25T13:50:50;1.50;;;1.13;;
2009;SDS011;1008;47.404;8.502;2023-04-25T13:53:16;2.10;;;1.50;;
2009;SDS011;1008;47.404;8.502;2023-04-25T13:55:43;1.90;;;1.50;;
2009;SDS011;1008;47.404;8.502;2023-04-25T13:58:10;2.83;;;1.40;;
2009;SDS011;1008;47.404;8.502;2023-04-25T14:00:37;4.20;;;1.50;;
2009;SDS011;1008;47.404;8.502;2023-04-25T14:03:05;2.67;;;1.87;;
2009;SDS011;1008;47.404;8.502;2023-04-25T14:05:34;2.27;;;1.70;;
2009;SDS011;1008;47.404;8.502;2023-04-25T14:08:03;1.80;;;1.40;;
2009;SDS011;1008;47.404;8.502;2023-04-25T14:10:34;3.83;;;1.43;;
2009;SDS011;1008;47.404;8.502;2023-04-25T14:13:01;4.00;;;1.70;;
2009;SDS011;1008;47.404;8.502;2023-04-25T14:15:29;2.57;;;1.40;;
2009;SDS011;1008;47.404;8.502;2023-04-25T14:17:56;2.03;;;1.60;;
2009;SDS011;1008;47.404;8.502;2023-04-25T14:20:23;2.03;;;1.63;;
2009;SDS011;1008;47.404;8.502;2023-04-25T14:22:51;2.07;;;1.60;;
2009;SDS011;1008;47.404;8.502;2023-04-25T14:25:19;3.93;;;1.97;;
2009;SDS011;1008;47.404;8.502;2023-04-25T14:27:46;2.00;;;1.80;;
2009;SDS011;1008;47.404;8.502;2023-04-25T14:30:15;2.57;;;1.63;;
2009;SDS011;1008;47.404;8.502;2023-04-25T14:32:42;1.87;;;1.70;;
2009;SDS011;1008;47.404;8.502;2023-04-25T14:35:09;1.83;;;1.47;;
2009;SDS011;1008;47.404;8.502;2023-04-25T14:37:36;2.27;;;1.50;;
2009;SDS011;1008;47.404;8.502;2023-04-25T14:40:05;2.57;;;1.90;;
2009;SDS011;1008;47.404;8.502;2023-04-25T14:42:33;2.43;;;1.70;;
2009;SDS011;1008;47.404;8.502;2023-04-25T14:45:00;3.27;;;1.80;;
2009;SDS011;1008;47.404;8.502;2023-04-25T14:47:27;2.10;;;1.73;;
2009;SDS011;1008;47.404;8.502;2023-04-25T14:49:54;2.30;;;1.60;;
2009;SDS011;1008;47.404;8.502;2023-04-25T14:52:21;2.07;;;1.20;;
2009;SDS011;1008;47.404;8.502;2023-04-25T14:54:48;1.57;;;1.20;;
2009;SDS011;1008;47.404;8.502;2023-04-25T14:57:17;1.83;;;1.33;;
2009;SDS011;1008;47.404;8.502;2023-04-25T14:59:44;1.60;;;1.40;;
2009;SDS011;1008;47.404;8.502;2023-04-25T15:02:11;2.20;;;2.00;;
2009;SDS011;1008;47.404;8.502;2023-04-25T15:04:38;1.80;;;1.60;;
2009;SDS011;1008;47.404;8.502;2023-04-25T15:07:04;1.90;;;1.50;;
2009;SDS011;1008;47.404;8.502;2023-04-25T15:09:31;1.70;;;1.40;;
2009;SDS011;1008;47.404;8.502;2023-04-25T15:11:58;3.33;;;1.50;;
2009;SDS011;1008;47.404;8.502;2023-04-25T15:14:26;2.07;;;1.40;;
2009;SDS011;1008;47.404;8.502;2023-04-25T15:16:53;2.47;;;1.20;;